Terminal Aerodrome Forecast
Issued by NWS

Home | Current Version | Previous Version | Text Only | Print | Product List | Glossary On
Versions: 1 2 3 4 5 6 7 8 9 10 11 12 13 14 15 16 17 18 19
000
FTUS45 KFGZ 022347 AAA
TAFPGA
TAF AMD
KPGA 022347Z 0300/0324 VRB06KT P6SM OVC200
     FM030400 VRB04KT P6SM FEW110 SCT200
     FM031800 VRB05KT P6SM SCT080=

USA.gov is the U.S. government's official web portal to all federal, state and local government web resources and services.